FZDJ weather

Mutena Airport
Mutena, Kasai-Occidental Province, Congo (Kinshasa)

Public forecast

Using degrees Celsius for public forecast. Weather courtesy of forecast.io.

METAR (pilot weather report)

Report is more than 2 hours old.

Closest report is Dundo Airport, 42.9 nm (79.4 km) SSW. Retrieved 2018/11/17 13:00 UTC (4 hours ago):

FNDU 171300Z 00000KT 9999 SCT033 FEW034CB 30/18 Q1015

TAF (pilot weather forecast)

Forecast is more than 12 hours old.

Closest forecast is Dundo Airport, 42.9 nm (79.4 km) SSW. Retrieved 2018/11/16 12:00 UTC (1 day ago):

TAF FNDU 122300Z 1612/1624 05005KT 8000 FEW015 FEW020CB BKN040 TEMPO 1614/1618 7000 -RADZ SCT018 FEW018CB BKN025 BECMG 1618/1620 12005KT 9999 FEW015